createdAt,value
2016-12-24T00:01:00.967Z,1020.5
2016-12-24T00:02:11.241Z,1020.5
2016-12-24T00:03:21.197Z,1020.54
2016-12-24T00:04:30.857Z,1020.57
2016-12-24T00:05:40.502Z,1020.51
2016-12-24T00:06:50.758Z,1020.55
2016-12-24T00:08:00.721Z,1020.58
2016-12-24T00:09:10.700Z,1020.55
2016-12-24T00:10:20.972Z,1020.54
2016-12-24T00:11:30.614Z,1020.52
2016-12-24T00:12:40.574Z,1020.58
2016-12-24T00:13:50.854Z,1020.56
2016-12-24T00:15:00.823Z,1020.58
2016-12-24T00:16:10.790Z,1020.59
2016-12-24T00:17:21.060Z,1020.56
2016-12-24T00:18:30.704Z,1020.52
2016-12-24T00:19:40.969Z,1020.48
2016-12-24T00:20:51.241Z,1020.46
2016-12-24T00:22:01.196Z,1020.51
2016-12-24T00:23:11.137Z,1020.51
2016-12-24T00:24:21.120Z,1020.47
2016-12-24T00:25:31.079Z,1020.39
2016-12-24T00:26:41.351Z,1020.31
2016-12-24T00:27:51.331Z,1020.36
2016-12-24T00:29:01.325Z,1020.35
2016-12-24T00:30:11.280Z,1020.35
2016-12-24T00:31:21.232Z,1020.28
2016-12-24T00:32:30.886Z,1020.19
2016-12-24T00:33:41.145Z,1020.21
2016-12-24T00:34:51.412Z,1020.22
2016-12-24T00:36:01.050Z,1020.23
2016-12-24T00:37:11.325Z,1020.16
2016-12-24T00:38:20.979Z,1020.15
2016-12-24T00:39:31.239Z,1020.09
2016-12-24T00:40:40.886Z,1020.05
2016-12-24T00:41:50.528Z,1020.04
2016-12-24T00:43:00.489Z,1019.96
2016-12-24T00:44:10.762Z,1019.92
2016-12-24T00:45:21.027Z,1019.86
2016-12-24T00:46:30.992Z,1019.84
2016-12-24T00:47:41.261Z,1019.83
2016-12-24T00:48:51.209Z,1019.81
2016-12-24T00:50:00.871Z,1019.77
2016-12-24T00:51:11.165Z,1019.74
2016-12-24T00:52:20.793Z,1019.66
2016-12-24T00:53:30.784Z,1019.59
2016-12-24T00:54:40.745Z,1019.53
2016-12-24T00:55:51.018Z,1019.42
2016-12-24T00:57:01.270Z,1019.51
2016-12-24T00:58:11.232Z,1019.55
2016-12-24T00:59:21.187Z,1019.53
2016-12-24T01:00:30.845Z,1019.55
2016-12-24T01:01:41.193Z,1019.58
2016-12-24T01:02:51.444Z,1019.57
2016-12-24T01:04:01.088Z,1019.58
2016-12-24T01:05:11.353Z,1019.55
2016-12-24T01:06:21.055Z,1019.52
2016-12-24T01:07:31.011Z,1019.52
2016-12-24T01:08:41.276Z,1019.44
2016-12-24T01:09:51.539Z,1019.45
2016-12-24T01:11:01.504Z,1019.44
2016-12-24T01:12:11.136Z,1019.36
2016-12-24T01:13:21.088Z,1019.28
2016-12-24T01:14:31.350Z,1019.27
2016-12-24T01:15:41.302Z,1019.2
2016-12-24T01:16:51.257Z,1019.17
2016-12-24T01:18:00.918Z,1019.14
2016-12-24T01:19:11.187Z,1019.11
2016-12-24T01:20:21.152Z,1019.06
2016-12-24T01:21:31.427Z,1018.97
2016-12-24T01:22:40.739Z,1018.97
2016-12-24T01:23:50.399Z,1019.03
2016-12-24T01:25:00.352Z,1018.99
2016-12-24T01:26:10.304Z,1018.93
2016-12-24T01:27:20.557Z,1018.91
2016-12-24T01:28:30.524Z,1018.91
2016-12-24T01:29:40.476Z,1019.05
2016-12-24T01:30:50.425Z,1019.17
2016-12-24T01:32:00.681Z,1019.16
2016-12-24T01:33:10.635Z,1019.15
2016-12-24T01:34:20.890Z,1019.13
2016-12-24T01:35:30.841Z,1019.01
2016-12-24T01:36:41.100Z,1018.94
2016-12-24T01:37:50.748Z,1018.89
2016-12-24T01:39:00.697Z,1018.99
2016-12-24T01:40:10.348Z,1019.04
2016-12-24T01:41:20.294Z,1019.01
2016-12-24T01:42:29.932Z,1018.9
2016-12-24T01:43:39.884Z,1018.79
2016-12-24T01:44:49.520Z,1018.82
2016-12-24T01:45:59.778Z,1018.85
2016-12-24T01:47:09.721Z,1018.86
2016-12-24T01:48:19.920Z,1018.91
2016-12-24T01:49:29.607Z,1018.95
2016-12-24T01:50:39.558Z,1018.98
2016-12-24T01:51:49.823Z,1018.98
2016-12-24T01:52:59.797Z,1018.99
2016-12-24T01:54:09.129Z,1018.98
2016-12-24T01:55:19.491Z,1018.97
2016-12-24T01:56:29.440Z,1018.88
2016-12-24T01:57:39.395Z,1018.89
2016-12-24T01:58:49.346Z,1018.76
2016-12-24T01:59:59.308Z,1018.63
2016-12-24T02:01:08.639Z,1018.58
2016-12-24T02:02:18.892Z,1018.5
2016-12-24T02:03:29.156Z,1018.57
2016-12-24T02:04:39.425Z,1018.51
2016-12-24T02:05:49.691Z,1018.51
2016-12-24T02:06:59.643Z,1018.68
2016-12-24T02:08:09.618Z,1018.57
2016-12-24T02:09:19.566Z,1018.58
2016-12-24T02:10:29.841Z,1018.55
2016-12-24T02:11:39.475Z,1018.47
2016-12-24T02:12:49.427Z,1018.42
2016-12-24T02:13:59.072Z,1018.33
2016-12-24T02:15:09.335Z,1018.28
2016-12-24T02:16:19.290Z,1018.3
2016-12-24T02:17:29.252Z,1018.33
2016-12-24T02:18:39.191Z,1018.27
2016-12-24T02:19:49.146Z,1018.35
2016-12-24T02:20:59.408Z,1018.4
2016-12-24T02:22:09.667Z,1018.42
2016-12-24T02:23:19.632Z,1018.48
2016-12-24T02:24:29.593Z,1018.53
2016-12-24T02:25:39.536Z,1018.56
2016-12-24T02:26:49.177Z,1018.43
2016-12-24T02:27:58.819Z,1018.4
2016-12-24T02:29:08.458Z,1018.44
2016-12-24T02:30:18.713Z,1018.47
2016-12-24T02:31:28.665Z,1018.54
2016-12-24T02:32:38.921Z,1018.56
2016-12-24T02:33:49.183Z,1018.58
2016-12-24T02:34:59.449Z,1018.59
2016-12-24T02:36:09.094Z,1018.48
2016-12-24T02:37:19.033Z,1018.41
2016-12-24T02:38:29.292Z,1018.37
2016-12-24T02:39:39.241Z,1018.28
2016-12-24T02:40:49.510Z,1018.16
2016-12-24T02:41:59.471Z,1018.1
2016-12-24T02:43:09.417Z,1018.13
2016-12-24T02:44:19.065Z,1018.18
2016-12-24T02:45:29.334Z,1018.14
2016-12-24T02:46:39.283Z,1018.15
2016-12-24T02:47:49.555Z,1018.02
2016-12-24T02:48:59.804Z,1017.98
2016-12-24T02:50:10.076Z,1017.96
2016-12-24T02:51:20.329Z,1017.99
2016-12-24T02:52:29.971Z,1018.04
2016-12-24T02:53:39.616Z,1018.02
2016-12-24T02:54:49.884Z,1018.02
2016-12-24T02:56:00.146Z,1017.97
2016-12-24T02:57:10.396Z,1017.9
2016-12-24T02:58:20.662Z,1017.9
2016-12-24T02:59:30.627Z,1017.8
2016-12-24T03:00:40.879Z,1017.76
2016-12-24T03:01:50.828Z,1017.76
2016-12-24T03:03:01.085Z,1017.74
2016-12-24T03:04:10.406Z,1017.71
2016-12-24T03:05:20.671Z,1017.73
2016-12-24T03:06:30.626Z,1017.65
2016-12-24T03:07:40.256Z,1017.64
2016-12-24T03:08:50.206Z,1017.6
2016-12-24T03:10:00.457Z,1017.66
2016-12-24T03:11:10.726Z,1017.61
2016-12-24T03:12:21.030Z,1017.63
2016-12-24T03:13:31.008Z,1017.61
2016-12-24T03:14:40.345Z,1017.59
2016-12-24T03:15:50.302Z,1017.68
2016-12-24T03:17:00.236Z,1017.62
2016-12-24T03:18:10.185Z,1017.56
2016-12-24T03:19:20.144Z,1017.52
2016-12-24T03:20:30.415Z,1017.58
2016-12-24T03:21:40.374Z,1017.62
2016-12-24T03:22:50.319Z,1017.65
2016-12-24T03:24:00.576Z,1017.62
2016-12-24T03:25:10.227Z,1017.63
2016-12-24T03:26:20.499Z,1017.53
2016-12-24T03:27:30.444Z,1017.54
2016-12-24T03:28:40.409Z,1017.58
2016-12-24T03:29:50.102Z,1017.61
2016-12-24T03:31:00.061Z,1017.57
2016-12-24T03:32:10.333Z,1017.61
2016-12-24T03:33:20.825Z,1017.57
2016-12-24T03:34:30.778Z,1017.5
2016-12-24T03:35:40.720Z,1017.54
2016-12-24T03:36:50.982Z,1017.47
2016-12-24T03:38:00.950Z,1017.51
2016-12-24T03:39:11.201Z,1017.47
2016-12-24T03:40:21.562Z,1017.45
2016-12-24T03:41:30.886Z,1017.44
2016-12-24T03:42:40.531Z,1017.46
2016-12-24T03:43:50.479Z,1017.46
2016-12-24T03:45:00.442Z,1017.41
2016-12-24T03:46:10.112Z,1017.41
2016-12-24T03:47:20.069Z,1017.45
2016-12-24T03:48:30.316Z,1017.45
2016-12-24T03:49:39.955Z,1017.39
2016-12-24T03:50:49.904Z,1017.37
2016-12-24T03:51:59.242Z,1017.33
2016-12-24T03:53:09.508Z,1017.33
2016-12-24T03:54:19.750Z,1017.34
2016-12-24T03:55:29.392Z,1017.3
2016-12-24T03:56:39.373Z,1017.29
2016-12-24T03:57:49.639Z,1017.34
2016-12-24T03:58:59.596Z,1017.3
2016-12-24T04:00:09.237Z,1017.31
2016-12-24T04:01:19.287Z,1017.29
2016-12-24T04:02:29.238Z,1017.24
2016-12-24T04:03:39.491Z,1017.25
2016-12-24T04:04:49.441Z,1017.2
2016-12-24T04:05:59.696Z,1017.18
2016-12-24T04:07:09.956Z,1017.16
2016-12-24T04:08:19.904Z,1017.09
2016-12-24T04:09:30.160Z,1017.11
2016-12-24T04:10:40.419Z,1017.03
2016-12-24T04:11:50.372Z,1017.05
2016-12-24T04:13:00.333Z,1017.09
2016-12-24T04:14:10.589Z,1017
2016-12-24T04:15:20.871Z,1017.02
2016-12-24T04:16:30.840Z,1017
2016-12-24T04:17:41.088Z,1017.02
2016-12-24T04:18:51.047Z,1017.01
2016-12-24T04:20:01.322Z,1017.05
2016-12-24T04:21:11.473Z,1017.03
2016-12-24T04:22:21.425Z,1017.04
2016-12-24T04:23:31.066Z,1017.02
2016-12-24T04:24:41.322Z,1017.01
2016-12-24T04:25:50.970Z,1017.02
2016-12-24T04:27:00.928Z,1016.96
2016-12-24T04:28:11.197Z,1016.92
2016-12-24T04:29:21.143Z,1016.9
2016-12-24T04:30:31.082Z,1016.86
2016-12-24T04:31:41.028Z,1016.86
2016-12-24T04:32:50.967Z,1016.91
2016-12-24T04:34:01.252Z,1016.84
2016-12-24T04:35:11.508Z,1016.85
2016-12-24T04:36:20.836Z,1016.85
2016-12-24T04:37:31.086Z,1016.86
2016-12-24T04:38:41.367Z,1016.82
2016-12-24T04:39:51.322Z,1016.77
2016-12-24T04:41:01.275Z,1016.82
2016-12-24T04:42:11.534Z,1016.84
2016-12-24T04:43:21.475Z,1016.82
2016-12-24T04:44:30.804Z,1016.81
2016-12-24T04:45:41.070Z,1016.74
2016-12-24T04:46:50.718Z,1016.77
2016-12-24T04:48:00.983Z,1016.73
2016-12-24T04:49:10.612Z,1016.72
2016-12-24T04:50:20.568Z,1016.73
2016-12-24T04:51:30.522Z,1016.78
2016-12-24T04:52:39.543Z,1016.73
2016-12-24T04:53:49.803Z,1016.76
2016-12-24T04:54:59.950Z,1016.72
2016-12-24T04:56:10.206Z,1016.71
2016-12-24T04:57:19.841Z,1016.76
2016-12-24T04:58:29.787Z,1016.72
2016-12-24T04:59:39.422Z,1016.68
2016-12-24T05:00:48.760Z,1016.67
2016-12-24T05:01:59.070Z,1016.59
2016-12-24T05:03:09.028Z,1016.65
2016-12-24T05:04:19.390Z,1016.62
2016-12-24T05:05:29.326Z,1016.58
2016-12-24T05:06:39.605Z,1016.55
2016-12-24T05:07:49.877Z,1016.61
2016-12-24T05:08:59.826Z,1016.65
2016-12-24T05:10:10.091Z,1016.63
2016-12-24T05:11:20.344Z,1016.65
2016-12-24T05:12:30.298Z,1016.56
2016-12-24T05:13:40.252Z,1016.52
2016-12-24T05:14:50.200Z,1016.57
2016-12-24T05:16:00.450Z,1016.56
2016-12-24T05:17:10.712Z,1016.64
2016-12-24T05:18:20.658Z,1016.58
2016-12-24T05:19:30.932Z,1016.66
2016-12-24T05:20:40.876Z,1016.61
2016-12-24T05:21:50.818Z,1016.68
2016-12-24T05:23:01.077Z,1016.65
2016-12-24T05:24:10.728Z,1016.58
2016-12-24T05:25:20.739Z,1016.62
2016-12-24T05:26:31.003Z,1016.64
2016-12-24T05:27:41.260Z,1016.57
2016-12-24T05:28:51.218Z,1016.6
2016-12-24T05:30:01.474Z,1016.63
2016-12-24T05:31:11.740Z,1016.64
2016-12-24T05:32:22.150Z,1016.56
2016-12-24T05:33:32.415Z,1016.56
2016-12-24T05:34:42.684Z,1016.6
2016-12-24T05:35:52.632Z,1016.64
2016-12-24T05:37:02.905Z,1016.67
2016-12-24T05:38:12.853Z,1016.71
2016-12-24T05:39:22.799Z,1016.78
2016-12-24T05:40:33.061Z,1016.68
2016-12-24T05:41:43.010Z,1016.68
2016-12-24T05:42:53.269Z,1016.72
2016-12-24T05:44:03.270Z,1016.7
2016-12-24T05:45:13.541Z,1016.66
2016-12-24T05:46:23.186Z,1016.65
2016-12-24T05:47:33.672Z,1016.65
2016-12-24T05:48:43.315Z,1016.71
2016-12-24T05:49:53.618Z,1016.59
2016-12-24T05:51:03.267Z,1016.61
2016-12-24T05:52:13.229Z,1016.62
2016-12-24T05:53:23.185Z,1016.7
2016-12-24T05:54:33.433Z,1016.71
2016-12-24T05:55:43.381Z,1016.7
2016-12-24T05:56:53.644Z,1016.66
2016-12-24T05:58:03.292Z,1016.71
2016-12-24T05:59:13.545Z,1016.67
2016-12-24T06:00:23.494Z,1016.74
2016-12-24T06:01:33.436Z,1016.71
2016-12-24T06:02:43.082Z,1016.74
2016-12-24T06:03:52.415Z,1016.72
2016-12-24T06:05:02.668Z,1016.7
2016-12-24T06:06:12.930Z,1016.71
2016-12-24T06:07:22.592Z,1016.77
2016-12-24T06:08:32.536Z,1016.71
2016-12-24T06:09:42.799Z,1016.66
2016-12-24T06:10:53.062Z,1016.69
2016-12-24T06:12:03.333Z,1016.63
2016-12-24T06:13:12.973Z,1016.68
2016-12-24T06:14:22.931Z,1016.66
2016-12-24T06:15:33.186Z,1016.66
2016-12-24T06:16:43.126Z,1016.51
2016-12-24T06:17:53.101Z,1016.52
2016-12-24T06:19:03.055Z,1016.58
2016-12-24T06:20:13.312Z,1016.42
2016-12-24T06:21:23.596Z,1016.53
2016-12-24T06:22:33.551Z,1016.48
2016-12-24T06:23:43.805Z,1016.45
2016-12-24T06:24:53.763Z,1016.53
2016-12-24T06:26:04.022Z,1016.53
2016-12-24T06:27:14.290Z,1016.51
2016-12-24T06:28:24.541Z,1016.55
2016-12-24T06:29:34.485Z,1016.56
2016-12-24T06:30:44.750Z,1016.47
2016-12-24T06:31:54.697Z,1016.48
2016-12-24T06:33:04.649Z,1016.43
2016-12-24T06:34:14.602Z,1016.48
2016-12-24T06:35:23.955Z,1016.52
2016-12-24T06:36:33.898Z,1016.49
2016-12-24T06:37:44.163Z,1016.48
2016-12-24T06:38:53.807Z,1016.5
2016-12-24T06:40:04.089Z,1016.5
2016-12-24T06:41:14.045Z,1016.55
2016-12-24T06:42:24.297Z,1016.62
2016-12-24T06:43:34.246Z,1016.63
2016-12-24T06:44:44.183Z,1016.59
2016-12-24T06:45:54.124Z,1016.49
2016-12-24T06:47:04.092Z,1016.47
2016-12-24T06:48:14.361Z,1016.5
2016-12-24T06:49:24.617Z,1016.52
2016-12-24T06:50:34.870Z,1016.47
2016-12-24T06:51:44.502Z,1016.47
2016-12-24T06:52:54.762Z,1016.49
2016-12-24T06:54:05.058Z,1016.45
2016-12-24T06:55:15.001Z,1016.45
2016-12-24T06:56:25.366Z,1016.43
2016-12-24T06:57:35.625Z,1016.41
2016-12-24T06:58:45.564Z,1016.45
2016-12-24T06:59:55.507Z,1016.41
2016-12-24T07:01:05.756Z,1016.38
2016-12-24T07:02:16.022Z,1016.39
2016-12-24T07:03:26.319Z,1016.44
2016-12-24T07:04:36.265Z,1016.43
2016-12-24T07:05:46.521Z,1016.47
2016-12-24T07:06:56.797Z,1016.47
2016-12-24T07:08:07.065Z,1016.5
2016-12-24T07:09:17.328Z,1016.42
2016-12-24T07:10:27.590Z,1016.5
2016-12-24T07:11:37.539Z,1016.5
2016-12-24T07:12:47.802Z,1016.53
2016-12-24T07:13:57.753Z,1016.48
2016-12-24T07:15:08.045Z,1016.39
2016-12-24T07:16:18.022Z,1016.45
2016-12-24T07:17:27.977Z,1016.47
2016-12-24T07:18:38.252Z,1016.52
2016-12-24T07:19:48.219Z,1016.51
2016-12-24T07:20:58.488Z,1016.56
2016-12-24T07:22:08.790Z,1016.61
2016-12-24T07:23:19.059Z,1016.62
2016-12-24T07:24:28.700Z,1016.56
2016-12-24T07:25:38.959Z,1016.66
2016-12-24T07:26:48.908Z,1016.67
2016-12-24T07:27:59.167Z,1016.65
2016-12-24T07:29:09.117Z,1016.69
2016-12-24T07:30:19.071Z,1016.67
2016-12-24T07:31:28.712Z,1016.66
2016-12-24T07:32:38.655Z,1016.66
2016-12-24T07:33:47.994Z,1016.58
2016-12-24T07:34:58.252Z,1016.62
2016-12-24T07:36:08.521Z,1016.63
2016-12-24T07:37:18.781Z,1016.63
2016-12-24T07:38:29.042Z,1016.65
2016-12-24T07:39:38.732Z,1016.65
2016-12-24T07:40:48.073Z,1016.68
2016-12-24T07:41:57.718Z,1016.65
2016-12-24T07:43:07.376Z,1016.65
2016-12-24T07:44:17.026Z,1016.65
2016-12-24T07:45:27.299Z,1016.66
2016-12-24T07:46:36.950Z,1016.67
2016-12-24T07:47:46.627Z,1016.64
2016-12-24T07:48:56.979Z,1016.63
2016-12-24T07:50:07.260Z,1016.67
2016-12-24T07:51:17.526Z,1016.71
2016-12-24T07:52:27.490Z,1016.75
2016-12-24T07:53:37.436Z,1016.73
2016-12-24T07:54:47.702Z,1016.69
2016-12-24T07:55:57.687Z,1016.77
2016-12-24T07:57:07.974Z,1016.82
2016-12-24T07:58:17.929Z,1016.87
2016-12-24T07:59:28.192Z,1016.86
2016-12-24T08:00:38.460Z,1016.81
2016-12-24T08:01:48.431Z,1016.78
2016-12-24T08:02:58.690Z,1016.82
2016-12-24T08:04:08.332Z,1016.83
2016-12-24T08:05:18.591Z,1016.83
2016-12-24T08:06:28.557Z,1016.85
2016-12-24T08:07:38.511Z,1016.84
2016-12-24T08:08:48.463Z,1016.83
2016-12-24T08:09:58.418Z,1016.8
2016-12-24T08:11:08.678Z,1016.82
2016-12-24T08:12:18.930Z,1016.87
2016-12-24T08:13:28.591Z,1016.9
2016-12-24T08:14:38.556Z,1016.85
2016-12-24T08:15:48.517Z,1016.82
2016-12-24T08:16:58.789Z,1016.83
2016-12-24T08:18:09.074Z,1016.85
2016-12-24T08:19:18.712Z,1016.87
2016-12-24T08:20:28.994Z,1016.85
2016-12-24T08:21:38.347Z,1016.78
2016-12-24T08:22:47.689Z,1016.78
2016-12-24T08:23:57.951Z,1016.74
2016-12-24T08:25:07.599Z,1016.77
2016-12-24T08:26:16.965Z,1016.79
2016-12-24T08:27:27.246Z,1016.76
2016-12-24T08:28:37.509Z,1016.8
2016-12-24T08:29:47.471Z,1016.78
2016-12-24T08:30:57.739Z,1016.72
2016-12-24T08:32:07.707Z,1016.72
2016-12-24T08:33:17.665Z,1016.79
2016-12-24T08:34:27.627Z,1016.74
2016-12-24T08:35:37.902Z,1016.78
2016-12-24T08:36:48.171Z,1016.73
2016-12-24T08:37:58.175Z,1016.8
2016-12-24T08:39:08.123Z,1016.84
2016-12-24T08:40:18.408Z,1016.8
2016-12-24T08:41:28.680Z,1016.84
2016-12-24T08:42:38.638Z,1016.85
2016-12-24T08:43:48.894Z,1016.88
2016-12-24T08:44:59.158Z,1016.81
2016-12-24T08:46:09.109Z,1016.86
2016-12-24T08:47:19.381Z,1016.87
2016-12-24T08:48:29.340Z,1016.88
2016-12-24T08:49:39.294Z,1016.83
2016-12-24T08:50:49.259Z,1016.84
2016-12-24T08:51:59.541Z,1016.8
2016-12-24T08:53:09.800Z,1016.75
2016-12-24T08:54:19.451Z,1016.82
2016-12-24T08:55:29.739Z,1016.82
2016-12-24T08:56:39.684Z,1016.8
2016-12-24T08:57:49.653Z,1016.83
2016-12-24T08:58:59.925Z,1016.88
2016-12-24T09:00:09.889Z,1016.87
2016-12-24T09:01:19.842Z,1016.81
2016-12-24T09:02:29.803Z,1016.85
2016-12-24T09:03:39.778Z,1016.85
2016-12-24T09:04:49.745Z,1016.86
2016-12-24T09:05:59.710Z,1016.88
2016-12-24T09:07:09.358Z,1016.85
2016-12-24T09:08:19.622Z,1016.89
2016-12-24T09:09:29.886Z,1016.84
2016-12-24T09:10:40.164Z,1016.81
2016-12-24T09:11:50.421Z,1016.81
2016-12-24T09:13:00.373Z,1016.79
2016-12-24T09:14:10.635Z,1016.74
2016-12-24T09:15:20.587Z,1016.76
2016-12-24T09:16:30.847Z,1016.76
2016-12-24T09:17:41.105Z,1016.74
2016-12-24T09:18:50.753Z,1016.77
2016-12-24T09:20:00.744Z,1016.78
2016-12-24T09:21:10.703Z,1016.73
2016-12-24T09:22:21.154Z,1016.74
2016-12-24T09:23:30.523Z,1016.65
2016-12-24T09:24:40.492Z,1016.63
2016-12-24T09:25:50.770Z,1016.63
2016-12-24T09:27:00.731Z,1016.6
2016-12-24T09:28:10.686Z,1016.62
2016-12-24T09:29:20.340Z,1016.57
2016-12-24T09:30:30.312Z,1016.5
2016-12-24T09:31:40.574Z,1016.52
2016-12-24T09:32:50.529Z,1016.45
2016-12-24T09:34:00.805Z,1016.34
2016-12-24T09:35:11.076Z,1016.29
2016-12-24T09:36:21.038Z,1016.26
2016-12-24T09:37:31.305Z,1016.3
2016-12-24T09:38:41.572Z,1016.27
2016-12-24T09:39:51.838Z,1016.23
2016-12-24T09:41:01.806Z,1016.28
2016-12-24T09:42:12.077Z,1016.3
2016-12-24T09:43:22.347Z,1016.32
2016-12-24T09:44:32.313Z,1016.32
2016-12-24T09:45:41.982Z,1016.34
2016-12-24T09:46:52.257Z,1016.38
2016-12-24T09:48:02.519Z,1016.3
2016-12-24T09:49:12.519Z,1016.29
2016-12-24T09:50:22.779Z,1016.32
2016-12-24T09:51:33.044Z,1016.3
2016-12-24T09:52:42.679Z,1016.25
2016-12-24T09:53:52.633Z,1016.27
2016-12-24T09:55:02.928Z,1016.18
2016-12-24T09:56:13.198Z,1016.16
2016-12-24T09:57:23.162Z,1016.12
2016-12-24T09:58:33.419Z,1016.1
2016-12-24T09:59:43.371Z,1016.14
2016-12-24T10:00:53.329Z,1016.2
2016-12-24T10:02:03.607Z,1016.22
2016-12-24T10:03:13.570Z,1016.23
2016-12-24T10:04:23.529Z,1016.19
2016-12-24T10:05:33.486Z,1016.17
2016-12-24T10:06:43.745Z,1016.21
2016-12-24T10:07:53.701Z,1016.29
2016-12-24T10:09:04.011Z,1016.31
2016-12-24T10:10:13.665Z,1016.26
2016-12-24T10:11:23.938Z,1016.25
2016-12-24T10:12:33.909Z,1016.25
2016-12-24T10:13:43.259Z,1016.29
2016-12-24T10:14:53.291Z,1016.29
2016-12-24T10:16:03.566Z,1016.32
2016-12-24T10:17:13.543Z,1016.33
2016-12-24T10:18:23.844Z,1016.31
2016-12-24T10:19:33.800Z,1016.39
2016-12-24T10:20:44.062Z,1016.37
2016-12-24T10:21:54.018Z,1016.37
2016-12-24T10:23:04.040Z,1016.37
2016-12-24T10:24:14.305Z,1016.38
2016-12-24T10:25:24.257Z,1016.34
2016-12-24T10:26:34.216Z,1016.31
2016-12-24T10:27:44.178Z,1016.29
2016-12-24T10:28:54.459Z,1016.31
2016-12-24T10:30:04.437Z,1016.31
2016-12-24T10:31:14.734Z,1016.25
2016-12-24T10:32:24.997Z,1016.32
2016-12-24T10:33:34.947Z,1016.27
2016-12-24T10:34:45.243Z,1016.23
2016-12-24T10:35:54.888Z,1016.24
2016-12-24T10:37:05.214Z,1016.23
2016-12-24T10:38:15.473Z,1016.26
2016-12-24T10:39:25.432Z,1016.23
2016-12-24T10:40:35.409Z,1016.27
2016-12-24T10:41:45.070Z,1016.22
2016-12-24T10:42:55.034Z,1016.26
2016-12-24T10:44:04.689Z,1016.18
2016-12-24T10:45:14.955Z,1016.16
2016-12-24T10:46:24.907Z,1016.14
2016-12-24T10:47:35.178Z,1016.15
2016-12-24T10:48:45.165Z,1016.12
2016-12-24T10:49:55.431Z,1016.08
2016-12-24T10:51:05.707Z,1016.1
2016-12-24T10:52:15.352Z,1016.07
2016-12-24T10:53:25.326Z,1016.06
2016-12-24T10:54:35.611Z,1016.05
2016-12-24T10:55:45.902Z,1016.06
2016-12-24T10:56:56.178Z,1016.04
2016-12-24T10:58:05.825Z,1016.06
2016-12-24T10:59:15.785Z,1016.08
2016-12-24T11:00:25.844Z,1016.05
2016-12-24T11:01:35.184Z,1016.01
2016-12-24T11:02:44.826Z,1016.08
2016-12-24T11:03:54.798Z,1016
2016-12-24T11:05:04.756Z,1015.99
2016-12-24T11:06:14.717Z,1015.98
2016-12-24T11:07:24.355Z,1015.98
2016-12-24T11:08:34.637Z,1015.98
2016-12-24T11:09:44.285Z,1015.91
2016-12-24T11:10:53.930Z,1015.88
2016-12-24T11:12:03.885Z,1015.8
2016-12-24T11:13:13.539Z,1015.76
2016-12-24T11:14:23.818Z,1015.77
2016-12-24T11:15:33.476Z,1015.77
2016-12-24T11:16:43.153Z,1015.74
2016-12-24T11:17:52.486Z,1015.72
2016-12-24T11:19:02.455Z,1015.77
2016-12-24T11:20:12.112Z,1015.71
2016-12-24T11:21:22.077Z,1015.74
2016-12-24T11:22:32.354Z,1015.66
2016-12-24T11:23:42.627Z,1015.66
2016-12-24T11:24:52.602Z,1015.63
2016-12-24T11:26:02.240Z,1015.62
2016-12-24T11:27:11.914Z,1015.62
2016-12-24T11:28:22.179Z,1015.67
2016-12-24T11:29:32.141Z,1015.68
2016-12-24T11:30:41.802Z,1015.69
2016-12-24T11:31:52.066Z,1015.65
2016-12-24T11:33:02.336Z,1015.57
2016-12-24T11:34:11.990Z,1015.54
2016-12-24T11:35:22.249Z,1015.63
2016-12-24T11:36:32.207Z,1015.65
2016-12-24T11:37:42.494Z,1015.56
2016-12-24T11:38:52.771Z,1015.59
2016-12-24T11:40:02.726Z,1015.58
2016-12-24T11:41:12.697Z,1015.62
2016-12-24T11:42:22.643Z,1015.6
2016-12-24T11:43:32.914Z,1015.57
2016-12-24T11:44:42.626Z,1015.61
2016-12-24T11:45:52.892Z,1015.59
2016-12-24T11:47:02.571Z,1015.52
2016-12-24T11:48:12.837Z,1015.51
2016-12-24T11:49:23.122Z,1015.52
2016-12-24T11:50:32.785Z,1015.49
2016-12-24T11:51:42.734Z,1015.5
2016-12-24T11:52:52.709Z,1015.5
2016-12-24T11:54:02.971Z,1015.53
2016-12-24T11:55:13.268Z,1015.58
2016-12-24T11:56:23.237Z,1015.57
2016-12-24T11:57:32.572Z,1015.58
2016-12-24T11:58:42.530Z,1015.58
2016-12-24T11:59:52.808Z,1015.58
2016-12-24T12:01:02.811Z,1015.56
2016-12-24T12:02:13.085Z,1015.5
2016-12-24T12:03:23.343Z,1015.43
2016-12-24T12:04:33.307Z,1015.48
2016-12-24T12:05:43.540Z,1015.49
2016-12-24T12:06:53.514Z,1015.53
2016-12-24T12:08:03.496Z,1015.51
2016-12-24T12:09:13.147Z,1015.47
2016-12-24T12:10:22.494Z,1015.45
2016-12-24T12:11:32.768Z,1015.48
2016-12-24T12:12:42.736Z,1015.49
2016-12-24T12:13:52.688Z,1015.47
2016-12-24T12:15:02.961Z,1015.46
2016-12-24T12:16:12.919Z,1015.48
2016-12-24T12:17:23.178Z,1015.44
2016-12-24T12:18:33.184Z,1015.39
2016-12-24T12:19:43.462Z,1015.36
2016-12-24T12:20:53.161Z,1015.35
2016-12-24T12:22:03.162Z,1015.34
2016-12-24T12:23:13.424Z,1015.45
2016-12-24T12:24:23.739Z,1015.43
2016-12-24T12:25:33.705Z,1015.49
2016-12-24T12:26:43.987Z,1015.45
2016-12-24T12:27:53.955Z,1015.43
2016-12-24T12:29:03.920Z,1015.44
2016-12-24T12:30:14.333Z,1015.37
2016-12-24T12:31:24.298Z,1015.25
2016-12-24T12:32:34.614Z,1015.22
2016-12-24T12:33:44.573Z,1015.12
2016-12-24T12:34:54.848Z,1015.15
2016-12-24T12:36:04.817Z,1015.19
2016-12-24T12:37:14.452Z,1015.12
2016-12-24T12:38:24.784Z,1015.11
2016-12-24T12:39:35.053Z,1015.08
2016-12-24T12:40:45.015Z,1015.09
2016-12-24T12:41:54.983Z,1015.03
2016-12-24T12:43:04.630Z,1015.05
2016-12-24T12:44:14.912Z,1015.1
2016-12-24T12:45:24.858Z,1015.11
2016-12-24T12:46:34.519Z,1015.08
2016-12-24T12:47:44.160Z,1015.02
2016-12-24T12:48:53.505Z,1015.02
2016-12-24T12:50:03.772Z,1015.07
2016-12-24T12:51:14.052Z,1015.03
2016-12-24T12:52:24.330Z,1015
2016-12-24T12:53:34.283Z,1014.94
2016-12-24T12:54:44.459Z,1014.98
2016-12-24T12:55:54.436Z,1014.99
2016-12-24T12:57:04.376Z,1014.97
2016-12-24T12:58:14.674Z,1014.94
2016-12-24T12:59:24.634Z,1014.94
2016-12-24T13:00:35.063Z,1015.01
2016-12-24T13:01:45.380Z,1015.01
2016-12-24T13:02:55.403Z,1015.06
2016-12-24T13:04:05.367Z,1015.08
2016-12-24T13:05:15.322Z,1015.1
2016-12-24T13:06:25.320Z,1015.1
2016-12-24T13:07:35.578Z,1015.07
2016-12-24T13:08:45.864Z,1015.05
2016-12-24T13:09:56.131Z,1015.09
2016-12-24T13:11:05.780Z,1015.09
2016-12-24T13:12:15.943Z,1015.09
2016-12-24T13:13:25.587Z,1015.05
2016-12-24T13:14:34.926Z,1015.11
2016-12-24T13:15:45.249Z,1015.04
2016-12-24T13:16:54.901Z,1015
2016-12-24T13:18:04.878Z,1014.99
2016-12-24T13:19:14.859Z,1014.99
2016-12-24T13:20:24.821Z,1014.95
2016-12-24T13:21:35.101Z,1014.95
2016-12-24T13:22:45.358Z,1014.9
2016-12-24T13:23:55.355Z,1014.89
2016-12-24T13:25:05.116Z,1014.93
2016-12-24T13:26:15.393Z,1014.93
2016-12-24T13:27:25.669Z,1014.94
2016-12-24T13:28:35.935Z,1014.96
2016-12-24T13:29:46.201Z,1014.94
2016-12-24T13:30:55.839Z,1014.91
2016-12-24T13:32:06.124Z,1014.9
2016-12-24T13:33:15.791Z,1014.87
2016-12-24T13:34:26.063Z,1014.86
2016-12-24T13:35:36.328Z,1014.93
2016-12-24T13:36:46.297Z,1014.88
2016-12-24T13:37:56.262Z,1014.84
2016-12-24T13:39:06.528Z,1014.85
2016-12-24T13:40:16.482Z,1014.86
2016-12-24T13:41:26.745Z,1014.83
2016-12-24T13:42:37.062Z,1014.81
2016-12-24T13:43:46.723Z,1014.88
2016-12-24T13:44:57.001Z,1014.92
2016-12-24T13:46:06.976Z,1014.88
2016-12-24T13:47:17.259Z,1014.88
2016-12-24T13:48:27.212Z,1014.83
2016-12-24T13:49:37.417Z,1014.88
2016-12-24T13:50:47.680Z,1014.86
2016-12-24T13:51:57.971Z,1014.89
2016-12-24T13:53:08.232Z,1014.89
2016-12-24T13:54:18.556Z,1014.87
2016-12-24T13:55:28.829Z,1014.91
2016-12-24T13:56:39.104Z,1014.89
2016-12-24T13:57:49.423Z,1014.87
2016-12-24T13:58:59.712Z,1014.89
2016-12-24T14:00:09.722Z,1014.87
2016-12-24T14:01:19.968Z,1014.82
2016-12-24T14:02:29.939Z,1014.78
2016-12-24T14:03:40.228Z,1014.75
2016-12-24T14:04:49.879Z,1014.69
2016-12-24T14:05:59.853Z,1014.7
2016-12-24T14:07:09.501Z,1014.67
2016-12-24T14:08:19.152Z,1014.68
2016-12-24T14:09:29.110Z,1014.63